sensor_id;sensor_type;location;lat;lon;timestamp;pressure;altitude;pressure_sealevel;temperature;humidity
57827;BME280;43656;57.746;11.780;2023-04-24T00:01:14;100097.28;;;12.55;91.94
57827;BME280;43656;57.746;11.780;2023-04-24T00:03:42;100067.19;;;12.40;92.04
57827;BME280;43656;57.746;11.780;2023-04-24T00:06:07;100089.09;;;12.62;91.65
57827;BME280;43656;57.746;11.780;2023-04-24T00:08:34;100080.25;;;12.55;91.52
57827;BME280;43656;57.746;11.780;2023-04-24T00:11:00;100093.88;;;12.60;91.64
57827;BME280;43656;57.746;11.780;2023-04-24T00:13:25;100089.66;;;12.64;91.53
57827;BME280;43656;57.746;11.780;2023-04-24T00:15:51;100074.63;;;12.56;91.32
57827;BME280;43656;57.746;11.780;2023-04-24T00:18:17;100086.16;;;12.63;91.37
57827;BME280;43656;57.746;11.780;2023-04-24T00:20:42;100086.75;;;12.65;91.45
57827;BME280;43656;57.746;11.780;2023-04-24T00:23:08;100089.81;;;12.69;91.07
57827;BME280;43656;57.746;11.780;2023-04-24T00:25:34;100091.09;;;12.66;91.10
57827;BME280;43656;57.746;11.780;2023-04-24T00:28:00;100082.03;;;12.61;90.95
57827;BME280;43656;57.746;11.780;2023-04-24T00:30:25;100090.38;;;12.59;91.32
57827;BME280;43656;57.746;11.780;2023-04-24T00:32:51;100080.94;;;12.50;91.63
57827;BME280;43656;57.746;11.780;2023-04-24T00:35:16;100086.78;;;12.47;91.46
57827;BME280;43656;57.746;11.780;2023-04-24T00:37:41;100071.84;;;12.33;91.35
57827;BME280;43656;57.746;11.780;2023-04-24T00:40:07;100082.47;;;12.46;91.63
57827;BME280;43656;57.746;11.780;2023-04-24T00:42:33;100088.31;;;12.43;91.20
57827;BME280;43656;57.746;11.780;2023-04-24T00:44:59;100088.31;;;12.43;91.62
57827;BME280;43656;57.746;11.780;2023-04-24T00:47:26;100079.03;;;12.39;91.47
57827;BME280;43656;57.746;11.780;2023-04-24T00:49:52;100086.31;;;12.38;91.65
57827;BME280;43656;57.746;11.780;2023-04-24T00:52:17;100091.47;;;12.40;91.52
57827;BME280;43656;57.746;11.780;2023-04-24T00:54:46;100084.56;;;12.44;91.72
57827;BME280;43656;57.746;11.780;2023-04-24T00:57:13;100082.22;;;12.48;91.67
57827;BME280;43656;57.746;11.780;2023-04-24T00:59:41;100082.91;;;12.43;91.74
57827;BME280;43656;57.746;11.780;2023-04-24T01:02:07;100079.16;;;12.44;92.14
57827;BME280;43656;57.746;11.780;2023-04-24T01:04:34;100078.34;;;12.43;92.44
57827;BME280;43656;57.746;11.780;2023-04-24T01:07:00;100082.47;;;12.46;92.27
57827;BME280;43656;57.746;11.780;2023-04-24T01:09:26;100069.53;;;12.48;92.40
57827;BME280;43656;57.746;11.780;2023-04-24T01:11:52;100080.34;;;12.48;92.41
57827;BME280;43656;57.746;11.780;2023-04-24T01:14:18;100084.78;;;12.42;92.65
57827;BME280;43656;57.746;11.780;2023-04-24T01:16:43;100079.16;;;12.44;92.75
57827;BME280;43656;57.746;11.780;2023-04-24T01:19:10;100079.97;;;12.44;92.68
57827;BME280;43656;57.746;11.780;2023-04-24T01:21:37;100075.41;;;12.45;92.56
57827;BME280;43656;57.746;11.780;2023-04-24T01:24:04;100076.69;;;12.42;93.07
57827;BME280;43656;57.746;11.780;2023-04-24T01:26:30;100075.72;;;12.37;93.22
57827;BME280;43656;57.746;11.780;2023-04-24T01:28:56;100074.94;;;12.48;93.02
57827;BME280;43656;57.746;11.780;2023-04-24T01:31:22;100069.19;;;12.44;93.26
57827;BME280;43656;57.746;11.780;2023-04-24T01:33:47;100051.44;;;12.37;93.29
57827;BME280;43656;57.746;11.780;2023-04-24T01:36:13;100049.81;;;12.36;93.39
57827;BME280;43656;57.746;11.780;2023-04-24T01:38:39;100068.50;;;12.49;93.04
57827;BME280;43656;57.746;11.780;2023-04-24T01:41:04;100072.63;;;12.52;93.15
57827;BME280;43656;57.746;11.780;2023-04-24T01:43:31;100071.78;;;12.51;93.36
57827;BME280;43656;57.746;11.780;2023-04-24T01:45:57;100068.72;;;12.48;93.20
57827;BME280;43656;57.746;11.780;2023-04-24T01:48:22;100062.28;;;12.49;93.37
57827;BME280;43656;57.746;11.780;2023-04-24T01:50:48;100071.56;;;12.53;93.00
57827;BME280;43656;57.746;11.780;2023-04-24T01:53:13;100065.81;;;12.49;93.04
57827;BME280;43656;57.746;11.780;2023-04-24T01:55:39;100046.41;;;12.40;92.91
57827;BME280;43656;57.746;11.780;2023-04-24T01:58:04;100056.91;;;12.49;93.13
57827;BME280;43656;57.746;11.780;2023-04-24T02:00:30;100059.81;;;12.47;92.96
57827;BME280;43656;57.746;11.780;2023-04-24T02:02:55;100062.66;;;12.52;92.88
57827;BME280;43656;57.746;11.780;2023-04-24T02:05:21;100057.72;;;12.49;93.12
57827;BME280;43656;57.746;11.780;2023-04-24T02:07:46;100057.25;;;12.52;92.89
57827;BME280;43656;57.746;11.780;2023-04-24T02:10:12;100056.66;;;12.50;93.06
57827;BME280;43656;57.746;11.780;2023-04-24T02:12:37;100060.41;;;12.49;92.83
57827;BME280;43656;57.746;11.780;2023-04-24T02:15:03;100055.00;;;12.49;92.86
57827;BME280;43656;57.746;11.780;2023-04-24T02:17:29;100047.38;;;12.46;92.98
57827;BME280;43656;57.746;11.780;2023-04-24T02:19:56;100019.53;;;12.34;92.86
57827;BME280;43656;57.746;11.780;2023-04-24T02:22:21;100032.72;;;12.42;92.65
57827;BME280;43656;57.746;11.780;2023-04-24T02:24:46;100027.78;;;12.39;92.77
57827;BME280;43656;57.746;11.780;2023-04-24T02:27:12;100027.97;;;12.37;92.45
57827;BME280;43656;57.746;11.780;2023-04-24T02:29:38;100018.34;;;12.30;92.55
57827;BME280;43656;57.746;11.780;2023-04-24T02:32:03;100029.75;;;12.32;92.57
57827;BME280;43656;57.746;11.780;2023-04-24T02:34:29;100025.63;;;12.29;92.41
57827;BME280;43656;57.746;11.780;2023-04-24T02:36:54;100026.28;;;12.25;92.22
57827;BME280;43656;57.746;11.780;2023-04-24T02:39:20;100035.00;;;12.27;92.20
57827;BME280;43656;57.746;11.780;2023-04-24T02:41:45;100037.44;;;12.28;92.20
57827;BME280;43656;57.746;11.780;2023-04-24T02:44:11;100033.94;;;12.28;92.04
57827;BME280;43656;57.746;11.780;2023-04-24T02:46:36;100034.53;;;12.30;91.82
57827;BME280;43656;57.746;11.780;2023-04-24T02:49:02;100031.22;;;12.28;92.11
57827;BME280;43656;57.746;11.780;2023-04-24T02:51:28;100024.56;;;12.30;91.96
57827;BME280;43656;57.746;11.780;2023-04-24T02:53:54;100025.38;;;12.31;91.93
57827;BME280;43656;57.746;11.780;2023-04-24T02:56:19;100005.78;;;12.23;91.75
57827;BME280;43656;57.746;11.780;2023-04-24T02:58:45;100010.09;;;12.25;92.09
57827;BME280;43656;57.746;11.780;2023-04-24T03:01:10;100014.84;;;12.29;91.87
57827;BME280;43656;57.746;11.780;2023-04-24T03:03:37;100014.59;;;12.31;91.75
57827;BME280;43656;57.746;11.780;2023-04-24T03:06:03;100011.31;;;12.29;91.44
57827;BME280;43656;57.746;11.780;2023-04-24T03:08:31;100014.22;;;12.27;91.48
57827;BME280;43656;57.746;11.780;2023-04-24T03:10:56;100008.63;;;12.29;91.38
57827;BME280;43656;57.746;11.780;2023-04-24T03:13:22;100001.00;;;12.26;91.41
57827;BME280;43656;57.746;11.780;2023-04-24T03:15:47;100007.66;;;12.23;91.30
57827;BME280;43656;57.746;11.780;2023-04-24T03:18:13;100006.47;;;12.19;91.27
57827;BME280;43656;57.746;11.780;2023-04-24T03:20:38;99995.19;;;12.10;91.25
57827;BME280;43656;57.746;11.780;2023-04-24T03:23:04;100003.63;;;12.14;91.29
57827;BME280;43656;57.746;11.780;2023-04-24T03:25:29;99974.84;;;11.96;91.09
57827;BME280;43656;57.746;11.780;2023-04-24T03:27:55;100003.28;;;12.10;91.30
57827;BME280;43656;57.746;11.780;2023-04-24T03:30:20;99996.09;;;12.04;91.31
57827;BME280;43656;57.746;11.780;2023-04-24T03:32:46;99994.56;;;12.08;90.97
57827;BME280;43656;57.746;11.780;2023-04-24T03:35:11;99992.94;;;12.07;90.58
57827;BME280;43656;57.746;11.780;2023-04-24T03:37:37;99985.44;;;12.09;90.64
57827;BME280;43656;57.746;11.780;2023-04-24T03:40:03;99991.31;;;12.06;90.61
57827;BME280;43656;57.746;11.780;2023-04-24T03:42:28;99992.13;;;12.07;90.40
57827;BME280;43656;57.746;11.780;2023-04-24T03:44:54;99979.34;;;12.02;90.56
57827;BME280;43656;57.746;11.780;2023-04-24T03:47:19;99973.94;;;12.02;90.44
57827;BME280;43656;57.746;11.780;2023-04-24T03:49:45;99973.34;;;12.00;90.34
57827;BME280;43656;57.746;11.780;2023-04-24T03:52:10;99981.78;;;12.04;90.23
57827;BME280;43656;57.746;11.780;2023-04-24T03:54:36;99988.16;;;12.09;89.84
57827;BME280;43656;57.746;11.780;2023-04-24T03:57:01;99983.13;;;12.13;89.62
57827;BME280;43656;57.746;11.780;2023-04-24T03:59:27;99974.41;;;12.11;89.54
57827;BME280;43656;57.746;11.780;2023-04-24T04:01:52;99949.19;;;12.05;89.18
57827;BME280;43656;57.746;11.780;2023-04-24T04:04:17;99973.41;;;12.23;89.05
57827;BME280;43656;57.746;11.780;2023-04-24T04:06:43;99978.84;;;12.35;88.43
57827;BME280;43656;57.746;11.780;2023-04-24T04:09:09;99976.25;;;12.40;88.27
57827;BME280;43656;57.746;11.780;2023-04-24T04:11:35;99977.78;;;12.48;87.85
57827;BME280;43656;57.746;11.780;2023-04-24T04:14:00;99973.00;;;12.50;87.69
57827;BME280;43656;57.746;11.780;2023-04-24T04:16:26;99958.91;;;12.48;87.19
57827;BME280;43656;57.746;11.780;2023-04-24T04:18:51;99977.25;;;12.81;86.46
57827;BME280;43656;57.746;11.780;2023-04-24T04:21:17;99966.59;;;12.98;85.30
57827;BME280;43656;57.746;11.780;2023-04-24T04:23:42;99970.31;;;12.74;86.33
57827;BME280;43656;57.746;11.780;2023-04-24T04:26:07;99962.94;;;12.69;86.44
57827;BME280;43656;57.746;11.780;2023-04-24T04:28:33;99969.97;;;12.58;87.02
57827;BME280;43656;57.746;11.780;2023-04-24T04:31:00;99967.28;;;12.58;86.82
57827;BME280;43656;57.746;11.780;2023-04-24T04:33:26;99968.56;;;12.56;86.85
57827;BME280;43656;57.746;11.780;2023-04-24T04:35:52;99968.81;;;12.66;86.15
57827;BME280;43656;57.746;11.780;2023-04-24T04:38:18;99965.41;;;12.70;86.25
57827;BME280;43656;57.746;11.780;2023-04-24T04:40:45;99970.78;;;12.70;86.16
57827;BME280;43656;57.746;11.780;2023-04-24T04:43:11;99971.41;;;12.73;85.87
57827;BME280;43656;57.746;11.780;2023-04-24T04:45:38;99963.06;;;12.62;85.72
57827;BME280;43656;57.746;11.780;2023-04-24T04:48:05;99973.13;;;12.67;85.86
57827;BME280;43656;57.746;11.780;2023-04-24T04:50:32;99974.88;;;12.61;86.00
57827;BME280;43656;57.746;11.780;2023-04-24T04:52:58;99975.03;;;12.66;85.81
57827;BME280;43656;57.746;11.780;2023-04-24T04:55:23;99970.09;;;12.63;85.82
57827;BME280;43656;57.746;11.780;2023-04-24T04:57:48;99964.47;;;12.65;85.66
57827;BME280;43656;57.746;11.780;2023-04-24T05:00:14;99940.50;;;12.45;85.68
57827;BME280;43656;57.746;11.780;2023-04-24T05:02:41;99967.28;;;12.58;85.71
57827;BME280;43656;57.746;11.780;2023-04-24T05:05:07;99958.72;;;12.73;85.19
57827;BME280;43656;57.746;11.780;2023-04-24T05:07:32;99962.38;;;12.79;84.70
57827;BME280;43656;57.746;11.780;2023-04-24T05:09:58;99959.41;;;12.80;84.53
57827;BME280;43656;57.746;11.780;2023-04-24T05:12:24;99954.25;;;12.79;84.55
57827;BME280;43656;57.746;11.780;2023-04-24T05:14:49;99953.34;;;12.85;84.03
57827;BME280;43656;57.746;11.780;2023-04-24T05:17:15;99951.66;;;12.84;84.34
57827;BME280;43656;57.746;11.780;2023-04-24T05:19:41;99961.88;;;12.93;83.80
57827;BME280;43656;57.746;11.780;2023-04-24T05:22:07;99956.00;;;12.97;83.68
57827;BME280;43656;57.746;11.780;2023-04-24T05:24:33;99946.06;;;12.85;83.97
57827;BME280;43656;57.746;11.780;2023-04-24T05:26:59;99950.72;;;12.90;84.06
57827;BME280;43656;57.746;11.780;2023-04-24T05:29:25;99950.88;;;12.95;83.79
57827;BME280;43656;57.746;11.780;2023-04-24T05:31:51;99957.19;;;13.01;83.71
57827;BME280;43656;57.746;11.780;2023-04-24T05:34:17;99955.66;;;13.05;83.27
57827;BME280;43656;57.746;11.780;2023-04-24T05:36:43;99957.66;;;13.09;83.02
57827;BME280;43656;57.746;11.780;2023-04-24T05:39:08;99960.81;;;12.94;83.57
57827;BME280;43656;57.746;11.780;2023-04-24T05:41:34;99962.47;;;13.07;82.90
57827;BME280;43656;57.746;11.780;2023-04-24T05:44:00;99959.28;;;13.10;83.04
57827;BME280;43656;57.746;11.780;2023-04-24T05:46:25;99965.75;;;13.09;83.01
57827;BME280;43656;57.746;11.780;2023-04-24T05:48:51;99949.28;;;13.11;82.97
57827;BME280;43656;57.746;11.780;2023-04-24T05:51:16;99952.94;;;13.16;82.75
57827;BME280;43656;57.746;11.780;2023-04-24T05:53:41;99950.25;;;13.16;82.22
57827;BME280;43656;57.746;11.780;2023-04-24T05:56:07;99954.13;;;13.09;82.60
57827;BME280;43656;57.746;11.780;2023-04-24T05:58:32;99950.84;;;13.19;82.03
57827;BME280;43656;57.746;11.780;2023-04-24T06:00:58;99958.47;;;13.33;81.84
57827;BME280;43656;57.746;11.780;2023-04-24T06:03:26;99952.84;;;13.35;81.65
57827;BME280;43656;57.746;11.780;2023-04-24T06:05:52;99955.97;;;13.44;81.41
57827;BME280;43656;57.746;11.780;2023-04-24T06:08:17;99942.59;;;13.37;80.74
57827;BME280;43656;57.746;11.780;2023-04-24T06:10:43;99952.94;;;13.40;80.90
57827;BME280;43656;57.746;11.780;2023-04-24T06:13:08;99938.13;;;13.31;80.73
57827;BME280;43656;57.746;11.780;2023-04-24T06:15:34;99943.66;;;13.36;80.77
57827;BME280;43656;57.746;11.780;2023-04-24T06:17:59;99928.31;;;13.25;80.69
57827;BME280;43656;57.746;11.780;2023-04-24T06:20:25;99938.25;;;13.36;80.23
57827;BME280;43656;57.746;11.780;2023-04-24T06:22:50;99946.09;;;13.49;80.04
57827;BME280;43656;57.746;11.780;2023-04-24T06:25:16;99945.63;;;13.52;79.75
57827;BME280;43656;57.746;11.780;2023-04-24T06:27:41;99944.94;;;13.45;79.44
57827;BME280;43656;57.746;11.780;2023-04-24T06:30:07;99939.97;;;13.54;79.31
57827;BME280;43656;57.746;11.780;2023-04-24T06:32:33;99939.06;;;13.48;79.53
57827;BME280;43656;57.746;11.780;2023-04-24T06:34:58;99944.66;;;13.58;78.99
57827;BME280;43656;57.746;11.780;2023-04-24T06:37:24;99946.97;;;13.67;77.98
57827;BME280;43656;57.746;11.780;2023-04-24T06:39:49;99955.25;;;13.89;77.41
57827;BME280;43656;57.746;11.780;2023-04-24T06:42:15;99958.41;;;13.97;76.68
57827;BME280;43656;57.746;11.780;2023-04-24T06:44:40;99952.00;;;14.03;76.39
57827;BME280;43656;57.746;11.780;2023-04-24T06:47:09;99951.31;;;14.25;75.90
57827;BME280;43656;57.746;11.780;2023-04-24T06:49:39;99939.56;;;14.19;75.85
57827;BME280;43656;57.746;11.780;2023-04-24T06:52:05;99959.69;;;14.40;75.46
57827;BME280;43656;57.746;11.780;2023-04-24T06:54:31;99960.59;;;14.46;75.05
57827;BME280;43656;57.746;11.780;2023-04-24T06:56:58;99959.00;;;14.62;74.70
57827;BME280;43656;57.746;11.780;2023-04-24T06:59:24;99967.44;;;14.65;74.58
57827;BME280;43656;57.746;11.780;2023-04-24T07:01:49;99966.19;;;14.73;74.37
57827;BME280;43656;57.746;11.780;2023-04-24T07:04:16;99975.88;;;14.86;73.93
57827;BME280;43656;57.746;11.780;2023-04-24T07:06:42;99982.19;;;14.91;73.36
57827;BME280;43656;57.746;11.780;2023-04-24T07:09:08;99970.28;;;14.92;73.36
57827;BME280;43656;57.746;11.780;2023-04-24T07:11:35;99968.56;;;14.86;73.22
57827;BME280;43656;57.746;11.780;2023-04-24T07:14:00;99974.47;;;14.83;74.48
57827;BME280;43656;57.746;11.780;2023-04-24T07:16:25;99984.59;;;14.71;75.39
57827;BME280;43656;57.746;11.780;2023-04-24T07:18:52;99984.41;;;14.44;76.70
57827;BME280;43656;57.746;11.780;2023-04-24T07:21:17;99973.63;;;14.32;76.91
57827;BME280;43656;57.746;11.780;2023-04-24T07:23:42;99987.13;;;14.15;78.55
57827;BME280;43656;57.746;11.780;2023-04-24T07:26:08;99989.25;;;14.13;78.53
57827;BME280;43656;57.746;11.780;2023-04-24T07:28:33;99968.16;;;13.98;79.05
57827;BME280;43656;57.746;11.780;2023-04-24T07:30:59;99986.59;;;14.01;79.94
57827;BME280;43656;57.746;11.780;2023-04-24T07:33:25;100003.31;;;13.98;80.50
57827;BME280;43656;57.746;11.780;2023-04-24T07:35:51;99976.22;;;13.81;80.79
57827;BME280;43656;57.746;11.780;2023-04-24T07:38:17;99994.19;;;13.88;81.57
57827;BME280;43656;57.746;11.780;2023-04-24T07:40:46;99995.81;;;13.89;81.85
57827;BME280;43656;57.746;11.780;2023-04-24T07:43:11;99993.72;;;13.79;82.19
57827;BME280;43656;57.746;11.780;2023-04-24T07:45:36;99996.63;;;13.89;82.44
57827;BME280;43656;57.746;11.780;2023-04-24T07:48:03;99994.56;;;13.79;82.89
57827;BME280;43656;57.746;11.780;2023-04-24T07:50:28;100001.88;;;13.67;83.64
57827;BME280;43656;57.746;11.780;2023-04-24T07:52:54;100004.00;;;13.65;84.10
57827;BME280;43656;57.746;11.780;2023-04-24T07:55:19;100006.38;;;13.61;84.53
57827;BME280;43656;57.746;11.780;2023-04-24T07:57:45;100006.84;;;13.47;85.13
57827;BME280;43656;57.746;11.780;2023-04-24T08:00:11;99999.69;;;13.40;86.17
57827;BME280;43656;57.746;11.780;2023-04-24T08:02:36;100004.28;;;13.40;85.83
57827;BME280;43656;57.746;11.780;2023-04-24T08:05:02;99999.47;;;13.42;86.01
57827;BME280;43656;57.746;11.780;2023-04-24T08:07:28;100005.00;;;13.35;86.36
57827;BME280;43656;57.746;11.780;2023-04-24T08:09:54;99993.00;;;13.20;86.81
57827;BME280;43656;57.746;11.780;2023-04-24T08:12:19;99998.66;;;13.30;86.56
57827;BME280;43656;57.746;11.780;2023-04-24T08:14:45;99985.22;;;13.23;86.53
57827;BME280;43656;57.746;11.780;2023-04-24T08:17:10;99972.69;;;13.05;87.25
57827;BME280;43656;57.746;11.780;2023-04-24T08:19:36;99981.84;;;13.16;87.64
57827;BME280;43656;57.746;11.780;2023-04-24T08:22:01;99970.44;;;13.14;87.52
57827;BME280;43656;57.746;11.780;2023-04-24T08:24:27;99973.41;;;12.89;88.96
57827;BME280;43656;57.746;11.780;2023-04-24T08:26:53;99973.88;;;12.86;89.40
57827;BME280;43656;57.746;11.780;2023-04-24T08:29:20;99939.09;;;12.42;91.44
57827;BME280;43656;57.746;11.780;2023-04-24T08:31:46;99956.06;;;12.31;93.61
57827;BME280;43656;57.746;11.780;2023-04-24T08:34:11;99941.75;;;12.19;94.48
57827;BME280;43656;57.746;11.780;2023-04-24T08:36:37;99945.31;;;12.43;92.36
57827;BME280;43656;57.746;11.780;2023-04-24T08:39:03;99947.91;;;12.61;91.50
57827;BME280;43656;57.746;11.780;2023-04-24T08:41:29;99953.91;;;12.63;91.23
57827;BME280;43656;57.746;11.780;2023-04-24T08:43:56;99948.50;;;12.63;91.30
57827;BME280;43656;57.746;11.780;2023-04-24T08:46:24;99951.34;;;12.68;91.26
57827;BME280;43656;57.746;11.780;2023-04-24T08:48:50;99955.75;;;12.51;92.80
57827;BME280;43656;57.746;11.780;2023-04-24T08:51:16;99933.19;;;12.34;93.67
57827;BME280;43656;57.746;11.780;2023-04-24T08:53:42;99940.31;;;12.82;91.46
57827;BME280;43656;57.746;11.780;2023-04-24T08:56:09;99930.06;;;12.84;91.50
57827;BME280;43656;57.746;11.780;2023-04-24T08:58:35;99932.19;;;12.82;92.56
57827;BME280;43656;57.746;11.780;2023-04-24T09:01:01;99930.19;;;12.77;92.99
57827;BME280;43656;57.746;11.780;2023-04-24T09:03:28;99922.44;;;12.81;92.46
57827;BME280;43656;57.746;11.780;2023-04-24T09:05:55;99920.31;;;12.94;91.66
57827;BME280;43656;57.746;11.780;2023-04-24T09:08:24;99917.06;;;12.69;92.65
57827;BME280;43656;57.746;11.780;2023-04-24T09:10:49;99903.63;;;12.15;94.64
57827;BME280;43656;57.746;11.780;2023-04-24T09:13:15;99924.28;;;12.33;93.87
57827;BME280;43656;57.746;11.780;2023-04-24T09:15:42;99928.53;;;12.41;93.41
57827;BME280;43656;57.746;11.780;2023-04-24T09:18:08;99921.25;;;12.53;92.47
57827;BME280;43656;57.746;11.780;2023-04-24T09:20:33;99917.25;;;12.44;92.72
57827;BME280;43656;57.746;11.780;2023-04-24T09:23:01;99913.41;;;12.52;91.75
57827;BME280;43656;57.746;11.780;2023-04-24T09:25:34;99911.06;;;12.55;91.70
57827;BME280;43656;57.746;11.780;2023-04-24T09:28:03;99915.13;;;12.22;93.19
57827;BME280;43656;57.746;11.780;2023-04-24T09:30:29;99901.03;;;12.20;91.97
57827;BME280;43656;57.746;11.780;2023-04-24T09:33:14;99918.03;;;12.21;92.00
57827;BME280;43656;57.746;11.780;2023-04-24T09:35:50;99909.50;;;12.12;92.13
57827;BME280;43656;57.746;11.780;2023-04-24T09:38:16;99903.84;;;12.02;92.20
57827;BME280;43656;57.746;11.780;2023-04-24T09:40:41;99882.25;;;12.02;91.15
57827;BME280;43656;57.746;11.780;2023-04-24T09:43:10;99903.41;;;12.29;90.62
57827;BME280;43656;57.746;11.780;2023-04-24T09:45:38;99905.53;;;12.38;89.50
57827;BME280;43656;57.746;11.780;2023-04-24T09:48:04;99897.13;;;12.58;88.92
57827;BME280;43656;57.746;11.780;2023-04-24T09:50:31;99892.75;;;12.34;90.07
57827;BME280;43656;57.746;11.780;2023-04-24T09:53:04;99878.78;;;12.37;90.04
57827;BME280;43656;57.746;11.780;2023-04-24T09:55:31;99883.00;;;12.33;89.71
57827;BME280;43656;57.746;11.780;2023-04-24T09:58:00;99859.13;;;11.94;90.22
57827;BME280;43656;57.746;11.780;2023-04-24T10:00:28;99869.75;;;12.43;89.20
57827;BME280;43656;57.746;11.780;2023-04-24T10:03:04;99835.00;;;12.11;88.81
57827;BME280;43656;57.746;11.780;2023-04-24T10:08:17;99851.09;;;12.88;87.38
57827;BME280;43656;57.746;11.780;2023-04-24T10:10:44;99853.75;;;13.00;86.02
57827;BME280;43656;57.746;11.780;2023-04-24T10:13:11;99814.78;;;12.96;86.01
57827;BME280;43656;57.746;11.780;2023-04-24T10:15:38;99857.44;;;12.82;87.29
57827;BME280;43656;57.746;11.780;2023-04-24T10:18:05;99857.00;;;13.26;nan
57827;BME280;43656;57.746;11.780;2023-04-24T10:20:32;99854.94;;;12.92;86.35
57827;BME280;43656;57.746;11.780;2023-04-24T10:22:58;99842.25;;;13.05;86.83
57827;BME280;43656;57.746;11.780;2023-04-24T10:25:33;99817.25;;;13.38;85.24
57827;BME280;43656;57.746;11.780;2023-04-24T10:28:00;99834.56;;;13.13;86.71
57827;BME280;43656;57.746;11.780;2023-04-24T10:30:28;99829.84;;;13.21;86.99
57827;BME280;43656;57.746;11.780;2023-04-24T10:32:54;99804.81;;;13.54;85.18
57827;BME280;43656;57.746;11.780;2023-04-24T10:35:19;99828.97;;;13.89;84.75
57827;BME280;43656;57.746;11.780;2023-04-24T10:37:54;99820.16;;;13.48;86.48
57827;BME280;43656;57.746;11.780;2023-04-24T10:40:30;99826.09;;;13.79;84.72
57827;BME280;43656;57.746;11.780;2023-04-24T10:42:56;99823.34;;;14.07;84.74
57827;BME280;43656;57.746;11.780;2023-04-24T10:45:23;99823.22;;;14.19;84.12
57827;BME280;43656;57.746;11.780;2023-04-24T10:50:18;99807.81;;;14.75;82.82
57827;BME280;43656;57.746;11.780;2023-04-24T10:52:45;99798.53;;;14.32;83.64
57827;BME280;43656;57.746;11.780;2023-04-24T10:55:12;99802.38;;;14.37;84.03
57827;BME280;43656;57.746;11.780;2023-04-24T10:57:38;99799.97;;;14.74;82.45
57827;BME280;43656;57.746;11.780;2023-04-24T11:02:39;99784.50;;;14.96;82.65
57827;BME280;43656;57.746;11.780;2023-04-24T11:05:06;99773.16;;;15.21;81.25
57827;BME280;43656;57.746;11.780;2023-04-24T11:13:24;99787.78;;;15.20;81.57
57827;BME280;43656;57.746;11.780;2023-04-24T11:16:29;99788.19;;;15.07;81.86
57827;BME280;43656;57.746;11.780;2023-04-24T11:24:26;99780.16;;;15.44;81.39
57827;BME280;43656;57.746;11.780;2023-04-24T11:34:41;99750.25;;;15.34;81.00
57827;BME280;43656;57.746;11.780;2023-04-24T11:37:06;99763.09;;;15.71;80.50
57827;BME280;43656;57.746;11.780;2023-04-24T11:39:36;99735.16;;;15.70;79.10
57827;BME280;43656;57.746;11.780;2023-04-24T11:42:03;99735.69;;;15.72;79.14
57827;BME280;43656;57.746;11.780;2023-04-24T11:44:29;99748.78;;;15.81;79.55
57827;BME280;43656;57.746;11.780;2023-04-24T11:46:56;99742.03;;;15.83;78.85
57827;BME280;43656;57.746;11.780;2023-04-24T11:49:21;99759.09;;;16.16;78.48
57827;BME280;43656;57.746;11.780;2023-04-24T11:51:47;99748.31;;;16.31;77.42
57827;BME280;43656;57.746;11.780;2023-04-24T11:54:12;99741.72;;;16.22;77.90
57827;BME280;43656;57.746;11.780;2023-04-24T11:56:38;99729.88;;;15.91;77.38
57827;BME280;43656;57.746;11.780;2023-04-24T11:59:04;99743.13;;;16.25;76.87
57827;BME280;43656;57.746;11.780;2023-04-24T12:01:29;99744.97;;;16.14;77.06
57827;BME280;43656;57.746;11.780;2023-04-24T12:03:59;99740.69;;;16.23;76.32
57827;BME280;43656;57.746;11.780;2023-04-24T12:06:25;99748.03;;;16.28;76.40
57827;BME280;43656;57.746;11.780;2023-04-24T12:08:52;99761.72;;;16.06;76.93
57827;BME280;43656;57.746;11.780;2023-04-24T12:11:17;99754.44;;;16.11;76.26
57827;BME280;43656;57.746;11.780;2023-04-24T12:13:44;99757.03;;;16.33;75.62
57827;BME280;43656;57.746;11.780;2023-04-24T12:16:10;99737.06;;;16.12;75.81
57827;BME280;43656;57.746;11.780;2023-04-24T12:18:41;99759.63;;;16.13;75.89
57827;BME280;43656;57.746;11.780;2023-04-24T12:21:23;99759.09;;;16.16;75.59
57827;BME280;43656;57.746;11.780;2023-04-24T12:23:54;99724.94;;;15.83;75.76
57827;BME280;43656;57.746;11.780;2023-04-24T12:26:20;99761.19;;;16.09;76.20
57827;BME280;43656;57.746;11.780;2023-04-24T12:28:48;99751.94;;;16.05;76.14
57827;BME280;43656;57.746;11.780;2023-04-24T12:31:17;99747.84;;;16.02;76.38
57827;BME280;43656;57.746;11.780;2023-04-24T12:33:45;99756.56;;;16.04;76.75
57827;BME280;43656;57.746;11.780;2023-04-24T12:36:11;99750.84;;;16.06;76.48
57827;BME280;43656;57.746;11.780;2023-04-24T12:38:37;99753.78;;;15.99;77.02
57827;BME280;43656;57.746;11.780;2023-04-24T12:41:08;99727.59;;;15.78;76.84
57827;BME280;43656;57.746;11.780;2023-04-24T12:43:34;99747.00;;;15.96;77.19
57827;BME280;43656;57.746;11.780;2023-04-24T12:45:59;99747.03;;;16.02;76.85
57827;BME280;43656;57.746;11.780;2023-04-24T12:48:27;99751.63;;;15.96;77.45
57827;BME280;43656;57.746;11.780;2023-04-24T12:50:52;99743.44;;;15.91;77.42
57827;BME280;43656;57.746;11.780;2023-04-24T12:53:18;99747.53;;;15.93;77.44
57827;BME280;43656;57.746;11.780;2023-04-24T12:55:44;99750.72;;;15.85;77.58
57827;BME280;43656;57.746;11.780;2023-04-24T12:58:20;99730.53;;;15.71;77.53
57827;BME280;43656;57.746;11.780;2023-04-24T13:00:46;99750.19;;;15.88;77.76
57827;BME280;43656;57.746;11.780;2023-04-24T13:03:12;99752.38;;;15.86;77.93
57827;BME280;43656;57.746;11.780;2023-04-24T13:05:38;99748.50;;;15.77;78.28
57827;BME280;43656;57.746;11.780;2023-04-24T13:08:03;99741.28;;;15.66;78.65
57827;BME280;43656;57.746;11.780;2023-04-24T13:10:29;99741.69;;;15.74;78.36